Time;durP1;ratioP1;P1;durP2;ratioP2;P2;SDS_P1;SDS_P2;PMS_P1;PMS_P2;Temp;Humidity;BMP_temperature;BMP_pressure;BME280_temperature;BME280_humidity;BME280_pressure;Samples;Min_cycle;Max_cycle;Signal;HPM_P1;HPM_P2
2021/06/25 00:02:20;;;;;;;22.73;11.55;;;;;;;;;;4989799;28;20101;-67
2021/06/25 00:04:46;;;;;;;18.33;9.77;;;;;;;;;;4988407;28;20026;-67
2021/06/25 00:07:12;;;;;;;16.23;10.35;;;;;;;;;;4989951;28;20046;-67
2021/06/25 00:09:38;;;;;;;17.50;10.30;;;;;;;;;;4992593;28;20053;-66
2021/06/25 00:12:05;;;;;;;17.75;11.20;;;;;;;;;;4988250;28;20030;-66
2021/06/25 00:14:32;;;;;;;18.75;11.40;;;;;;;;;;4976328;28;20038;-66
2021/06/25 00:16:59;;;;;;;17.27;10.93;;;;;;;;;;4978368;28;20054;-66
2021/06/25 00:19:25;;;;;;;16.33;11.40;;;;;;;;;;4991938;28;20083;-65
2021/06/25 00:21:51;;;;;;;14.98;10.13;;;;;;;;;;4987062;28;20061;-66
2021/06/25 00:24:17;;;;;;;16.60;11.10;;;;;;;;;;4988655;28;20027;-65
2021/06/25 00:26:43;;;;;;;16.05;9.50;;;;;;;;;;4992955;28;20023;-66
2021/06/25 00:29:09;;;;;;;17.92;8.85;;;;;;;;;;4988781;28;20041;-66
2021/06/25 00:31:36;;;;;;;18.60;10.25;;;;;;;;;;4990390;28;20088;-66
2021/06/25 00:34:03;;;;;;;15.82;8.95;;;;;;;;;;4988828;28;20030;-66
2021/06/25 00:36:29;;;;;;;17.30;9.23;;;;;;;;;;4989901;28;20030;-66
2021/06/25 00:38:55;;;;;;;14.52;8.27;;;;;;;;;;4987670;28;20029;-66
2021/06/25 00:41:21;;;;;;;15.18;9.48;;;;;;;;;;4988078;28;20045;-65
2021/06/25 00:43:47;;;;;;;17.75;10.55;;;;;;;;;;4988443;28;20534;-66
2021/06/25 00:46:13;;;;;;;15.35;9.60;;;;;;;;;;4988350;28;20551;-66
2021/06/25 00:48:39;;;;;;;15.35;9.63;;;;;;;;;;4988366;28;20524;-66
2021/06/25 00:51:06;;;;;;;14.98;9.45;;;;;;;;;;4988941;28;20030;-66
2021/06/25 00:53:32;;;;;;;18.48;10.32;;;;;;;;;;4986970;28;20076;-66
2021/06/25 00:55:58;;;;;;;21.90;12.48;;;;;;;;;;4989237;28;20175;-66
2021/06/25 00:58:24;;;;;;;17.98;11.52;;;;;;;;;;4987840;28;20014;-66
2021/06/25 01:00:50;;;;;;;20.42;11.18;;;;;;;;;;4990527;28;20097;-66
2021/06/25 01:03:16;;;;;;;18.42;11.93;;;;;;;;;;4988607;28;20054;-66
2021/06/25 01:05:43;;;;;;;16.15;11.45;;;;;;;;;;4988669;28;20110;-66
2021/06/25 01:08:09;;;;;;;22.50;13.93;;;;;;;;;;4988992;28;20026;-67
2021/06/25 01:10:36;;;;;;;20.30;12.65;;;;;;;;;;4988856;28;20033;-66
2021/06/25 01:13:02;;;;;;;22.33;14.10;;;;;;;;;;4987833;28;20030;-66
2021/06/25 01:15:28;;;;;;;19.75;13.30;;;;;;;;;;4987273;28;20034;-67
2021/06/25 01:17:54;;;;;;;23.20;14.13;;;;;;;;;;4988602;28;20030;-66
2021/06/25 01:20:25;;;;;;;23.55;15.70;;;;;;;;;;4989660;28;20029;-66
2021/06/25 01:22:51;;;;;;;24.67;16.50;;;;;;;;;;4987050;28;20022;-67
2021/06/25 01:25:19;;;;;;;27.15;15.88;;;;;;;;;;4986684;28;20473;-66
2021/06/25 01:27:46;;;;;;;25.90;15.75;;;;;;;;;;4989192;28;20018;-66
2021/06/25 01:30:14;;;;;;;25.35;15.95;;;;;;;;;;4987176;28;20094;-66
2021/06/25 01:32:41;;;;;;;23.38;16.27;;;;;;;;;;4985538;28;20121;-67
2021/06/25 01:35:08;;;;;;;30.48;15.90;;;;;;;;;;4987162;28;20390;-67
2021/06/25 01:37:34;;;;;;;25.90;16.63;;;;;;;;;;4986950;28;20511;-67
2021/06/25 01:40:00;;;;;;;24.23;16.15;;;;;;;;;;4985662;28;20094;-66
2021/06/25 01:42:27;;;;;;;24.30;15.00;;;;;;;;;;4986587;28;20482;-66
2021/06/25 01:44:54;;;;;;;32.53;18.48;;;;;;;;;;4992156;28;20053;-67
2021/06/25 01:47:20;;;;;;;31.15;17.50;;;;;;;;;;4989675;28;20125;-67
2021/06/25 01:49:46;;;;;;;26.73;17.40;;;;;;;;;;4986913;28;20026;-67
2021/06/25 01:52:16;;;;;;;29.80;18.38;;;;;;;;;;4988112;28;20038;-67
2021/06/25 01:54:42;;;;;;;32.17;19.33;;;;;;;;;;4987942;28;20018;-67
2021/06/25 01:57:08;;;;;;;33.65;17.95;;;;;;;;;;4988452;28;20481;-67
2021/06/25 01:59:35;;;;;;;36.03;20.35;;;;;;;;;;4987799;28;20497;-67
2021/06/25 02:02:01;;;;;;;35.40;20.92;;;;;;;;;;4989025;28;20109;-67
2021/06/25 02:04:27;;;;;;;36.97;20.85;;;;;;;;;;4987383;28;20029;-66
2021/06/25 02:06:53;;;;;;;34.40;21.15;;;;;;;;;;4988539;28;20030;-67
2021/06/25 02:09:19;;;;;;;34.40;21.08;;;;;;;;;;4987392;28;20034;-67
2021/06/25 02:11:45;;;;;;;38.80;23.10;;;;;;;;;;4987349;28;20026;-67
2021/06/25 02:14:11;;;;;;;39.67;22.35;;;;;;;;;;4987848;28;20410;-66
2021/06/25 02:16:37;;;;;;;37.83;23.70;;;;;;;;;;4987479;28;20030;-66
2021/06/25 02:19:03;;;;;;;42.22;24.33;;;;;;;;;;4987331;28;20153;-66
2021/06/25 02:21:29;;;;;;;40.67;23.92;;;;;;;;;;4985378;28;20023;-66
2021/06/25 02:23:55;;;;;;;43.92;26.42;;;;;;;;;;4987297;28;20035;-67
2021/06/25 02:26:22;;;;;;;42.72;25.58;;;;;;;;;;4983968;28;20102;-66
2021/06/25 02:28:48;;;;;;;40.50;24.52;;;;;;;;;;4990892;28;20037;-67
2021/06/25 02:31:14;;;;;;;42.20;24.05;;;;;;;;;;4989927;28;20402;-67
2021/06/25 02:33:40;;;;;;;46.05;27.27;;;;;;;;;;4990696;28;20114;-67
2021/06/25 02:36:06;;;;;;;45.95;25.75;;;;;;;;;;4992078;28;20034;-66
2021/06/25 02:38:32;;;;;;;42.53;26.08;;;;;;;;;;4989193;28;20026;-66
2021/06/25 02:40:58;;;;;;;38.33;25.60;;;;;;;;;;4990459;28;20109;-66
2021/06/25 02:43:24;;;;;;;48.25;27.60;;;;;;;;;;4989475;28;20022;-66
2021/06/25 02:45:50;;;;;;;44.25;26.30;;;;;;;;;;4992931;28;20037;-67
2021/06/25 02:48:16;;;;;;;42.53;26.13;;;;;;;;;;4990096;28;20505;-67
2021/06/25 02:50:42;;;;;;;42.28;26.05;;;;;;;;;;4992260;28;20524;-67
2021/06/25 02:53:09;;;;;;;39.67;25.50;;;;;;;;;;4989247;28;20023;-67
2021/06/25 02:55:35;;;;;;;44.30;25.15;;;;;;;;;;4991527;28;20703;-67
2021/06/25 02:58:01;;;;;;;40.55;25.00;;;;;;;;;;4989807;28;20026;-67
2021/06/25 03:00:27;;;;;;;46.33;25.17;;;;;;;;;;4990230;28;20037;-66
2021/06/25 03:02:53;;;;;;;42.05;25.90;;;;;;;;;;4989744;28;20041;-67
2021/06/25 03:05:20;;;;;;;47.08;26.98;;;;;;;;;;4990036;28;20030;-67
2021/06/25 03:07:46;;;;;;;49.25;27.30;;;;;;;;;;4990127;28;20034;-67
2021/06/25 03:10:14;;;;;;;45.50;26.55;;;;;;;;;;4991493;28;20037;-67
2021/06/25 03:12:40;;;;;;;49.03;26.02;;;;;;;;;;4987803;28;20081;-67
2021/06/25 03:15:06;;;;;;;42.38;24.77;;;;;;;;;;4991332;28;20143;-67
2021/06/25 03:17:32;;;;;;;44.35;25.63;;;;;;;;;;5001457;28;20540;-67
2021/06/25 03:19:58;;;;;;;45.33;26.65;;;;;;;;;;4994789;28;20026;-67
2021/06/25 03:22:24;;;;;;;47.13;26.73;;;;;;;;;;4988427;28;20022;-67
2021/06/25 03:24:50;;;;;;;43.40;26.73;;;;;;;;;;4990236;28;20050;-67
2021/06/25 03:27:16;;;;;;;45.88;26.80;;;;;;;;;;4991623;28;20030;-67
2021/06/25 03:29:42;;;;;;;50.30;29.23;;;;;;;;;;4987889;28;20110;-66
2021/06/25 03:32:08;;;;;;;47.67;26.98;;;;;;;;;;4986878;28;20026;-67
2021/06/25 03:34:35;;;;;;;49.45;27.63;;;;;;;;;;4979996;28;20041;-67
2021/06/25 03:37:01;;;;;;;48.15;26.40;;;;;;;;;;4989856;28;20055;-68
2021/06/25 03:39:27;;;;;;;47.53;26.77;;;;;;;;;;4988352;28;20374;-67
2021/06/25 03:41:53;;;;;;;48.65;28.17;;;;;;;;;;4988772;28;20030;-67
2021/06/25 03:44:19;;;;;;;48.30;27.48;;;;;;;;;;4990707;28;20023;-67
2021/06/25 03:46:45;;;;;;;45.38;27.95;;;;;;;;;;4993887;28;20404;-68
2021/06/25 03:49:11;;;;;;;45.53;26.40;;;;;;;;;;4991312;28;20494;-68
2021/06/25 03:51:37;;;;;;;41.40;24.55;;;;;;;;;;4988023;28;20031;-67
2021/06/25 03:54:03;;;;;;;43.97;26.38;;;;;;;;;;4987024;28;20041;-67
2021/06/25 03:56:29;;;;;;;48.00;25.60;;;;;;;;;;4989647;28;20022;-66
2021/06/25 03:58:55;;;;;;;49.25;27.08;;;;;;;;;;4994672;28;20026;-67
2021/06/25 04:01:22;;;;;;;42.35;25.83;;;;;;;;;;5003980;28;20025;-67
2021/06/25 04:03:48;;;;;;;44.63;25.67;;;;;;;;;;4993402;28;20117;-67
2021/06/25 04:06:15;;;;;;;48.58;25.20;;;;;;;;;;4996282;28;20407;-67
2021/06/25 04:08:41;;;;;;;42.45;24.40;;;;;;;;;;4991849;28;20030;-67
2021/06/25 04:11:07;;;;;;;44.40;24.23;;;;;;;;;;4988298;28;20133;-67
2021/06/25 04:13:34;;;;;;;45.75;24.33;;;;;;;;;;4988414;28;20034;-67
2021/06/25 04:16:00;;;;;;;40.30;20.50;;;;;;;;;;4989250;28;20021;-67
2021/06/25 04:18:26;;;;;;;33.72;20.42;;;;;;;;;;4988675;28;20182;-67
2021/06/25 04:20:53;;;;;;;36.70;19.40;;;;;;;;;;4989225;28;20018;-65
2021/06/25 04:23:19;;;;;;;35.15;17.98;;;;;;;;;;4987492;28;20030;-66
2021/06/25 04:25:45;;;;;;;31.48;18.13;;;;;;;;;;4987703;28;20053;-67
2021/06/25 04:28:12;;;;;;;34.47;18.17;;;;;;;;;;4990521;28;20113;-67
2021/06/25 04:30:40;;;;;;;32.30;17.58;;;;;;;;;;4989180;28;20030;-67
2021/06/25 04:33:08;;;;;;;34.92;17.52;;;;;;;;;;4988313;28;20035;-67
2021/06/25 04:35:34;;;;;;;33.25;15.70;;;;;;;;;;4988401;28;20037;-67
2021/06/25 04:38:02;;;;;;;31.17;15.20;;;;;;;;;;4989281;28;20417;-67
2021/06/25 04:40:29;;;;;;;27.95;15.88;;;;;;;;;;4993782;28;20064;-67
2021/06/25 04:42:55;;;;;;;30.30;14.05;;;;;;;;;;4995796;28;20018;-67
2021/06/25 04:45:21;;;;;;;32.13;15.95;;;;;;;;;;4989803;28;20033;-67
2021/06/25 04:47:47;;;;;;;28.33;13.75;;;;;;;;;;4989034;28;20026;-67
2021/06/25 04:50:13;;;;;;;32.35;14.55;;;;;;;;;;4989789;28;20087;-67
2021/06/25 04:52:40;;;;;;;31.60;14.95;;;;;;;;;;4993779;28;20493;-67
2021/06/25 04:55:07;;;;;;;30.75;15.40;;;;;;;;;;4987845;28;20026;-67
2021/06/25 04:57:33;;;;;;;27.60;13.88;;;;;;;;;;4976814;28;20123;-67
2021/06/25 04:59:59;;;;;;;28.67;14.82;;;;;;;;;;4982017;28;20060;-67
2021/06/25 05:02:25;;;;;;;25.73;13.85;;;;;;;;;;4981604;28;20041;-68
2021/06/25 05:04:51;;;;;;;29.50;14.88;;;;;;;;;;4970723;28;20037;-67
2021/06/25 05:07:17;;;;;;;27.27;13.02;;;;;;;;;;4981422;28;20035;-67
2021/06/25 05:09:43;;;;;;;25.02;12.98;;;;;;;;;;4984985;28;20481;-67
2021/06/25 05:12:09;;;;;;;25.30;11.48;;;;;;;;;;4977949;28;20083;-67
2021/06/25 05:14:35;;;;;;;24.92;12.70;;;;;;;;;;4985163;28;20564;-67
2021/06/25 05:17:01;;;;;;;26.13;13.43;;;;;;;;;;4984453;28;20489;-68
2021/06/25 05:19:27;;;;;;;28.77;13.45;;;;;;;;;;4981315;28;20022;-67
2021/06/25 05:21:54;;;;;;;21.70;11.55;;;;;;;;;;4980501;28;20037;-67
2021/06/25 05:24:20;;;;;;;23.85;12.32;;;;;;;;;;4981916;28;20401;-68
2021/06/25 05:26:46;;;;;;;29.88;12.48;;;;;;;;;;4981092;28;20151;-67
2021/06/25 05:29:12;;;;;;;22.13;11.88;;;;;;;;;;4988201;28;20034;-67
2021/06/25 05:31:38;;;;;;;22.77;12.43;;;;;;;;;;4981228;28;20041;-67
2021/06/25 05:34:04;;;;;;;20.77;10.88;;;;;;;;;;5000025;28;20034;-68
2021/06/25 05:36:30;;;;;;;26.27;12.20;;;;;;;;;;4984566;28;20038;-67
2021/06/25 05:38:56;;;;;;;23.23;10.27;;;;;;;;;;4991456;28;20640;-68
2021/06/25 05:41:22;;;;;;;18.83;10.38;;;;;;;;;;4979450;28;20030;-67
2021/06/25 05:43:48;;;;;;;22.90;12.30;;;;;;;;;;4976494;28;20030;-68
2021/06/25 05:46:14;;;;;;;21.38;11.50;;;;;;;;;;4981714;28;20259;-67
2021/06/25 05:48:40;;;;;;;16.70;9.93;;;;;;;;;;4982149;28;20097;-67
2021/06/25 05:51:06;;;;;;;21.17;10.85;;;;;;;;;;4979639;28;20027;-68
2021/06/25 05:53:33;;;;;;;24.08;11.48;;;;;;;;;;4980398;28;20030;-68
2021/06/25 05:55:59;;;;;;;20.42;10.52;;;;;;;;;;4990922;28;20087;-67
2021/06/25 05:58:25;;;;;;;22.45;10.77;;;;;;;;;;4975682;28;20079;-68
2021/06/25 06:00:51;;;;;;;28.30;10.20;;;;;;;;;;4979977;28;20030;-68
2021/06/25 06:03:17;;;;;;;20.02;9.90;;;;;;;;;;4975639;28;20027;-67
2021/06/25 06:05:43;;;;;;;19.25;10.00;;;;;;;;;;5004097;28;20026;-67
2021/06/25 06:08:09;;;;;;;19.83;10.88;;;;;;;;;;4977047;28;20030;-68
2021/06/25 06:10:36;;;;;;;19.85;10.52;;;;;;;;;;4982965;28;20030;-67
2021/06/25 06:13:02;;;;;;;19.10;10.30;;;;;;;;;;4980646;28;20126;-67
2021/06/25 06:15:28;;;;;;;19.00;9.80;;;;;;;;;;4993004;28;20042;-68
2021/06/25 06:17:57;;;;;;;20.55;11.25;;;;;;;;;;4988338;28;20046;-66
2021/06/25 06:20:25;;;;;;;22.80;10.98;;;;;;;;;;4986861;28;20042;-67
2021/06/25 06:36:29;;;;;;;23.77;10.95;;;;;;;;;;4999887;28;20467;-68
2021/06/25 06:38:55;;;;;;;19.50;9.80;;;;;;;;;;4981142;28;20023;-66
2021/06/25 06:41:22;;;;;;;20.63;10.48;;;;;;;;;;4984016;28;20023;-67
2021/06/25 06:43:48;;;;;;;18.83;10.93;;;;;;;;;;4983345;28;20026;-68
2021/06/25 06:46:15;;;;;;;20.65;10.10;;;;;;;;;;4979438;28;20034;-68
2021/06/25 06:48:42;;;;;;;28.52;11.27;;;;;;;;;;4982720;28;20027;-67
2021/06/25 06:51:08;;;;;;;22.08;11.02;;;;;;;;;;4979636;28;20054;-67
2021/06/25 06:53:34;;;;;;;21.52;11.75;;;;;;;;;;4980858;28;20027;-68
2021/06/25 06:56:01;;;;;;;20.25;10.00;;;;;;;;;;4983492;28;20545;-67
2021/06/25 06:58:27;;;;;;;22.33;10.55;;;;;;;;;;4983504;28;20085;-69
2021/06/25 07:00:54;;;;;;;26.17;11.88;;;;;;;;;;4983044;28;20018;-67
2021/06/25 07:03:20;;;;;;;20.95;11.07;;;;;;;;;;4978469;28;20038;-68
2021/06/25 07:05:46;;;;;;;15.60;9.20;;;;;;;;;;4981085;28;20019;-68
2021/06/25 07:08:12;;;;;;;18.50;10.40;;;;;;;;;;4979871;28;20464;-68
2021/06/25 07:10:38;;;;;;;20.23;11.18;;;;;;;;;;4983971;28;20041;-68
2021/06/25 07:13:04;;;;;;;24.45;11.35;;;;;;;;;;4974317;28;20030;-69
2021/06/25 07:15:30;;;;;;;19.52;10.18;;;;;;;;;;4981494;28;20037;-68
2021/06/25 07:17:56;;;;;;;18.58;11.73;;;;;;;;;;4985862;28;20855;-68
2021/06/25 07:20:22;;;;;;;22.88;11.32;;;;;;;;;;4982400;28;20049;-68
2021/06/25 07:22:48;;;;;;;16.88;10.05;;;;;;;;;;4982567;28;20060;-69
2021/06/25 07:25:15;;;;;;;19.77;10.65;;;;;;;;;;4983448;28;20061;-69
2021/06/25 07:27:42;;;;;;;17.90;10.43;;;;;;;;;;4984339;28;20034;-68
2021/06/25 07:30:08;;;;;;;22.45;9.93;;;;;;;;;;4980273;28;20572;-68
2021/06/25 07:32:35;;;;;;;21.98;10.43;;;;;;;;;;5002487;28;20120;-67
2021/06/25 07:35:01;;;;;;;19.40;11.45;;;;;;;;;;4987709;28;20031;-68
2021/06/25 07:37:27;;;;;;;24.23;12.02;;;;;;;;;;4987126;28;20042;-68
2021/06/25 07:39:53;;;;;;;22.23;11.35;;;;;;;;;;4989391;28;20034;-67
2021/06/25 07:42:21;;;;;;;22.80;13.13;;;;;;;;;;4982685;28;20478;-68
2021/06/25 07:44:49;;;;;;;21.50;12.13;;;;;;;;;;4981280;28;20038;-70
2021/06/25 07:47:15;;;;;;;21.85;12.43;;;;;;;;;;5059929;28;20034;-69
2021/06/25 07:49:41;;;;;;;19.83;12.45;;;;;;;;;;4978759;28;20033;-69
2021/06/25 07:52:07;;;;;;;20.92;11.63;;;;;;;;;;4980721;28;20045;-69
2021/06/25 07:54:33;;;;;;;21.10;12.10;;;;;;;;;;4982637;28;20107;-66
2021/06/25 07:56:59;;;;;;;21.45;10.70;;;;;;;;;;4983158;28;20486;-70
2021/06/25 07:59:25;;;;;;;20.30;11.35;;;;;;;;;;4982662;28;20937;-68
2021/06/25 08:01:52;;;;;;;19.90;10.85;;;;;;;;;;4981294;28;20049;-67
2021/06/25 08:04:18;;;;;;;24.42;10.68;;;;;;;;;;4976000;28;20032;-68
2021/06/25 08:06:44;;;;;;;16.80;9.00;;;;;;;;;;4980788;28;20031;-68
2021/06/25 08:09:10;;;;;;;18.52;9.43;;;;;;;;;;4979894;28;20087;-69
2021/06/25 08:11:36;;;;;;;15.27;8.43;;;;;;;;;;4974135;28;20372;-69
2021/06/25 08:14:02;;;;;;;18.60;9.05;;;;;;;;;;4975114;28;20032;-69
2021/06/25 08:16:28;;;;;;;13.52;8.75;;;;;;;;;;4977841;28;20035;-69
2021/06/25 08:18:58;;;;;;;15.80;9.55;;;;;;;;;;4974412;28;20026;-68
2021/06/25 08:21:24;;;;;;;17.73;10.18;;;;;;;;;;4975742;28;20029;-67
2021/06/25 08:23:51;;;;;;;15.88;10.18;;;;;;;;;;4994263;28;20022;-68
2021/06/25 08:26:17;;;;;;;14.27;9.65;;;;;;;;;;4983926;28;20378;-67
2021/06/25 08:28:43;;;;;;;14.75;9.05;;;;;;;;;;4984659;28;20038;-68
2021/06/25 08:31:09;;;;;;;16.75;8.25;;;;;;;;;;4983768;28;20023;-70
2021/06/25 08:33:35;;;;;;;11.07;6.70;;;;;;;;;;4981994;28;20041;-69
2021/06/25 08:36:01;;;;;;;12.75;6.43;;;;;;;;;;4984561;28;20038;-72
2021/06/25 08:38:27;;;;;;;11.93;6.85;;;;;;;;;;4987973;28;20030;-71
2021/06/25 08:40:56;;;;;;;12.80;7.47;;;;;;;;;;4984626;28;20011;-70
2021/06/25 08:43:22;;;;;;;13.63;7.82;;;;;;;;;;4979969;28;20018;-70
2021/06/25 08:45:48;;;;;;;10.73;6.70;;;;;;;;;;4983602;28;20018;-69
2021/06/25 08:48:16;;;;;;;10.13;5.88;;;;;;;;;;4986552;28;20504;-69
2021/06/25 08:50:45;;;;;;;9.30;5.57;;;;;;;;;;4981398;28;20018;-69
2021/06/25 08:53:12;;;;;;;13.18;5.80;;;;;;;;;;4976750;28;20061;-70
2021/06/25 08:55:43;;;;;;;11.25;5.70;;;;;;;;;;4987353;28;20481;-69
2021/06/25 08:58:13;;;;;;;11.57;5.70;;;;;;;;;;4988964;28;20424;-69
2021/06/25 09:00:39;;;;;;;12.35;6.60;;;;;;;;;;4994627;28;20034;-71
2021/06/25 09:03:05;;;;;;;11.90;6.50;;;;;;;;;;4983005;28;20041;-69
2021/06/25 09:05:31;;;;;;;11.73;7.10;;;;;;;;;;4982274;28;20027;-71
2021/06/25 09:07:58;;;;;;;10.40;6.32;;;;;;;;;;4982764;28;20033;-69
2021/06/25 09:10:32;;;;;;;15.05;7.47;;;;;;;;;;4986430;28;20033;-69
2021/06/25 09:13:04;;;;;;;10.48;6.53;;;;;;;;;;4983416;28;20071;-69
2021/06/25 09:15:30;;;;;;;;;;;;;;;;;;4986033;28;20031;-70
2021/06/25 09:17:58;;;;;;;11.40;6.15;;;;;;;;;;4981998;28;19910;-70
2021/06/25 09:20:30;;;;;;;10.60;6.75;;;;;;;;;;4984326;28;20586;-68
2021/06/25 09:22:56;;;;;;;12.13;6.40;;;;;;;;;;4981027;28;20035;-71
2021/06/25 09:25:22;;;;;;;12.00;7.65;;;;;;;;;;4984336;28;20027;-68
2021/06/25 09:27:56;;;;;;;12.60;6.53;;;;;;;;;;4987440;28;20040;-69
2021/06/25 09:30:23;;;;;;;12.43;6.50;;;;;;;;;;4986362;28;20030;-70
2021/06/25 09:32:50;;;;;;;11.73;6.82;;;;;;;;;;4983613;28;20038;-70
2021/06/25 09:35:17;;;;;;;14.18;6.95;;;;;;;;;;4986193;28;20437;-69
2021/06/25 09:37:44;;;;;;;10.38;7.07;;;;;;;;;;4984596;28;20628;-71
2021/06/25 09:40:13;;;;;;;12.75;7.57;;;;;;;;;;4988161;28;20481;-72
2021/06/25 09:42:42;;;;;;;13.65;8.13;;;;;;;;;;4989472;28;20119;-69
2021/06/25 09:45:09;;;;;;;16.05;8.07;;;;;;;;;;4988973;28;20041;-68
2021/06/25 09:47:46;;;;;;;16.40;8.23;;;;;;;;;;4988222;28;20034;-69
2021/06/25 09:50:20;;;;;;;15.52;9.27;;;;;;;;;;4982996;28;20034;-70
2021/06/25 09:52:46;;;;;;;16.63;8.40;;;;;;;;;;4985445;28;20030;-69
2021/06/25 09:55:12;;;;;;;17.30;9.80;;;;;;;;;;4989334;28;20042;-70
2021/06/25 09:58:06;;;;;;;17.35;8.82;;;;;;;;;;4988018;28;20031;-71
2021/06/25 10:03:57;;;;;;;17.23;10.45;;;;;;;;;;4945126;28;20052;-70
2021/06/25 10:06:27;;;;;;;16.70;10.30;;;;;;;;;;4978384;28;20069;-67
2021/06/25 10:08:53;;;;;;;14.90;9.40;;;;;;;;;;4981869;28;20042;-68
2021/06/25 10:11:21;;;;;;;16.85;8.63;;;;;;;;;;4980891;28;20121;-69
2021/06/25 10:13:49;;;;;;;16.75;8.85;;;;;;;;;;4976170;28;20053;-69
2021/06/25 10:16:16;;;;;;;17.35;8.30;;;;;;;;;;4983330;28;20015;-68
2021/06/25 10:18:43;;;;;;;15.57;8.70;;;;;;;;;;4985781;28;20048;-70
2021/06/25 10:21:13;;;;;;;13.38;8.52;;;;;;;;;;4995666;28;20026;-68
2021/06/25 10:23:40;;;;;;;14.35;8.50;;;;;;;;;;4984611;28;20026;-69
2021/06/25 10:26:08;;;;;;;641.03;99.53;;;;;;;;;;4986963;28;20019;-70
2021/06/25 10:28:38;;;;;;;18.63;9.73;;;;;;;;;;4993552;28;20030;-71
2021/06/25 10:31:05;;;;;;;17.33;9.13;;;;;;;;;;4987738;28;20060;-71
2021/06/25 10:33:31;;;;;;;15.88;8.85;;;;;;;;;;4986061;28;20413;-72
2021/06/25 10:35:59;;;;;;;12.48;7.50;;;;;;;;;;4980241;28;20057;-71
2021/06/25 10:38:26;;;;;;;11.15;7.07;;;;;;;;;;4990552;28;20019;-70
2021/06/25 10:40:56;;;;;;;13.82;7.80;;;;;;;;;;4985896;28;20073;-70
2021/06/25 10:43:42;;;;;;;15.43;8.35;;;;;;;;;;4983622;28;20030;-71
2021/06/25 10:46:28;;;;;;;12.88;8.10;;;;;;;;;;4994579;28;20019;-71
2021/06/25 10:48:55;;;;;;;12.13;7.40;;;;;;;;;;4989099;28;20405;-72
2021/06/25 10:51:22;;;;;;;16.00;9.35;;;;;;;;;;4987106;28;20026;-72
2021/06/25 10:54:10;;;;;;;13.85;7.68;;;;;;;;;;4984258;28;20027;-70
2021/06/25 10:56:42;;;;;;;12.45;8.15;;;;;;;;;;4977476;28;20035;-70
2021/06/25 10:59:18;;;;;;;14.55;8.02;;;;;;;;;;4987201;28;20506;-73
2021/06/25 11:02:10;;;;;;;14.05;8.35;;;;;;;;;;4989907;28;20035;-72
2021/06/25 11:04:36;;;;;;;;;;;;;;;;;;4982527;28;20053;-73
2021/06/25 11:07:06;;;;;;;14.23;7.75;;;;;;;;;;4989923;28;19949;-73
2021/06/25 11:10:02;;;;;;;15.85;7.88;;;;;;;;;;4985026;28;20536;-70
2021/06/25 11:12:28;;;;;;;13.27;9.00;;;;;;;;;;4979283;28;20057;-74
2021/06/25 11:15:08;;;;;;;13.98;9.00;;;;;;;;;;4987758;28;20077;-72
2021/06/25 11:17:47;;;;;;;15.38;7.43;;;;;;;;;;4979166;28;20081;-71
2021/06/25 11:20:23;;;;;;;11.45;6.53;;;;;;;;;;4987994;28;20040;-72
2021/06/25 11:22:55;;;;;;;13.20;8.07;;;;;;;;;;4985817;28;20118;-70
2021/06/25 11:25:21;;;;;;;;;;;;;;;;;;4986408;28;20023;-71
2021/06/25 11:28:06;;;;;;;20.92;10.50;;;;;;;;;;4983886;28;20414;-70
2021/06/25 11:30:50;;;;;;;15.27;10.32;;;;;;;;;;4985989;28;20622;-69
2021/06/25 11:33:32;;;;;;;21.40;11.88;;;;;;;;;;4989593;28;20470;-70
2021/06/25 11:36:17;;;;;;;21.98;11.10;;;;;;;;;;4990486;28;20051;-72
2021/06/25 11:38:58;;;;;;;21.55;10.95;;;;;;;;;;4980798;28;20023;-69
2021/06/25 11:41:34;;;;;;;25.43;13.27;;;;;;;;;;4978524;28;20101;-71
2021/06/25 11:44:01;;;;;;;22.55;12.57;;;;;;;;;;4985867;28;20671;-71
2021/06/25 11:46:27;;;;;;;22.65;14.25;;;;;;;;;;4979664;28;20065;-71
2021/06/25 11:49:01;;;;;;;26.02;15.55;;;;;;;;;;4980144;28;20494;-70
2021/06/25 11:51:33;;;;;;;29.02;17.45;;;;;;;;;;4981227;28;20226;-70
2021/06/25 11:54:01;;;;;;;31.95;17.55;;;;;;;;;;4993197;28;20045;-71
2021/06/25 11:56:27;;;;;;;29.73;16.58;;;;;;;;;;4981911;28;20450;-72
2021/06/25 11:58:56;;;;;;;28.02;20.23;;;;;;;;;;4981296;28;20033;-73
2021/06/25 12:01:22;;;;;;;27.17;19.25;;;;;;;;;;4978237;28;20053;-74
2021/06/25 12:03:48;;;;;;;30.90;19.70;;;;;;;;;;4978539;28;20404;-73
2021/06/25 12:06:14;;;;;;;28.60;18.73;;;;;;;;;;4981979;28;20489;-71
2021/06/25 12:09:10;;;;;;;24.85;12.27;;;;;;;;;;4988106;28;20030;-71
2021/06/25 12:11:37;;;;;;;27.35;11.07;;;;;;;;;;5004768;28;20042;-71
2021/06/25 12:14:07;;;;;;;22.60;9.63;;;;;;;;;;4993462;28;20515;-70
2021/06/25 12:16:38;;;;;;;21.33;9.13;;;;;;;;;;4986116;28;20109;-69
2021/06/25 12:19:08;;;;;;;21.65;9.85;;;;;;;;;;4979974;28;20022;-72
2021/06/25 12:21:34;;;;;;;30.33;9.77;;;;;;;;;;4987852;28;20049;-70
2021/06/25 12:24:00;;;;;;;22.77;10.10;;;;;;;;;;4981017;28;20030;-70
2021/06/25 12:26:27;;;;;;;17.80;9.80;;;;;;;;;;4977734;28;20042;-68
2021/06/25 12:28:57;;;;;;;26.95;10.10;;;;;;;;;;4983798;28;20019;-68
2021/06/25 12:31:29;;;;;;;22.65;10.48;;;;;;;;;;4986175;28;20035;-69
2021/06/25 12:34:06;;;;;;;18.00;8.65;;;;;;;;;;4986397;28;20046;-70
2021/06/25 12:36:33;;;;;;;25.38;10.43;;;;;;;;;;4987236;28;20190;-70
2021/06/25 12:39:00;;;;;;;20.20;9.48;;;;;;;;;;4986772;28;20034;-70
2021/06/25 12:41:26;;;;;;;29.13;10.45;;;;;;;;;;4987706;28;20517;-69
2021/06/25 12:43:53;;;;;;;23.27;10.63;;;;;;;;;;4989732;28;20567;-69
2021/06/25 12:46:20;;;;;;;23.00;9.18;;;;;;;;;;4987937;28;20485;-71
2021/06/25 12:48:46;;;;;;;20.83;8.18;;;;;;;;;;4981014;28;20045;-70
2021/06/25 12:51:14;;;;;;;20.30;8.25;;;;;;;;;;4985976;28;20026;-71
2021/06/25 12:53:41;;;;;;;19.88;8.52;;;;;;;;;;4981136;28;20083;-70
2021/06/25 12:56:08;;;;;;;21.88;9.07;;;;;;;;;;4985607;28;20137;-71
2021/06/25 12:58:38;;;;;;;23.10;9.57;;;;;;;;;;4990198;28;20030;-68
2021/06/25 13:01:05;;;;;;;19.35;8.70;;;;;;;;;;4991804;28;20071;-69
2021/06/25 13:03:31;;;;;;;25.23;11.10;;;;;;;;;;4993687;28;20042;-71
2021/06/25 13:05:58;;;;;;;29.52;10.68;;;;;;;;;;4988794;28;20059;-68
2021/06/25 13:08:28;;;;;;;25.35;10.63;;;;;;;;;;4990176;28;20095;-67
2021/06/25 13:10:58;;;;;;;24.20;12.40;;;;;;;;;;5058360;28;20065;-67
2021/06/25 13:13:29;;;;;;;25.58;12.75;;;;;;;;;;4980584;28;20111;-68
2021/06/25 13:15:57;;;;;;;25.20;13.43;;;;;;;;;;4988457;28;20044;-68
2021/06/25 13:18:25;;;;;;;25.85;12.75;;;;;;;;;;4987842;28;20019;-67
2021/06/25 13:21:10;;;;;;;26.15;11.57;;;;;;;;;;5002522;28;20037;-67
2021/06/25 13:23:36;;;;;;;22.58;11.95;;;;;;;;;;4978113;28;20026;-67
2021/06/25 13:26:12;;;;;;;22.02;11.57;;;;;;;;;;4984017;28;20047;-67
2021/06/25 13:28:54;;;;;;;20.90;10.73;;;;;;;;;;4983783;28;20113;-66
2021/06/25 13:31:20;;;;;;;28.05;11.82;;;;;;;;;;4983227;28;20034;-68
2021/06/25 13:33:46;;;;;;;26.23;11.60;;;;;;;;;;4987013;28;20034;-67
2021/06/25 13:36:12;;;;;;;21.67;11.35;;;;;;;;;;4994386;28;20042;-67
2021/06/25 13:38:38;;;;;;;17.20;8.98;;;;;;;;;;4997189;28;20030;-69
2021/06/25 13:41:16;;;;;;;22.35;10.57;;;;;;;;;;4974299;28;20018;-67
2021/06/25 13:43:44;;;;;;;25.48;10.80;;;;;;;;;;4985611;28;20093;-67
2021/06/25 13:46:10;;;;;;;24.25;11.52;;;;;;;;;;4983524;28;20034;-68
2021/06/25 13:48:37;;;;;;;19.98;10.55;;;;;;;;;;4988113;28;20067;-67
2021/06/25 13:51:04;;;;;;;21.85;11.65;;;;;;;;;;4988274;28;20030;-67
2021/06/25 13:53:38;;;;;;;20.50;12.68;;;;;;;;;;4986550;28;20042;-67
2021/06/25 13:56:06;;;;;;;20.20;11.32;;;;;;;;;;4991555;28;20022;-68
2021/06/25 13:58:32;;;;;;;20.08;11.13;;;;;;;;;;4987328;28;20137;-68
2021/06/25 14:01:01;;;;;;;23.17;11.68;;;;;;;;;;5021260;28;20068;-70
2021/06/25 14:03:28;;;;;;;20.48;11.80;;;;;;;;;;4985377;28;20023;-68
2021/06/25 14:06:04;;;;;;;21.13;12.32;;;;;;;;;;4986636;28;20114;-67
2021/06/25 14:08:41;;;;;;;20.15;11.38;;;;;;;;;;4983557;28;20625;-68
2021/06/25 14:11:13;;;;;;;19.48;10.18;;;;;;;;;;4987840;28;20030;-68
2021/06/25 14:13:41;;;;;;;22.73;10.80;;;;;;;;;;4984616;28;20113;-68
2021/06/25 14:16:33;;;;;;;20.55;10.38;;;;;;;;;;4988087;28;20418;-68
2021/06/25 14:19:02;;;;;;;16.85;10.40;;;;;;;;;;4985549;28;20043;-68
2021/06/25 14:21:29;;;;;;;17.17;8.60;;;;;;;;;;4982883;28;20122;-68
2021/06/25 14:23:57;;;;;;;20.55;8.38;;;;;;;;;;4986871;28;20121;-68
2021/06/25 14:26:24;;;;;;;19.50;10.20;;;;;;;;;;4989538;28;20507;-68
2021/06/25 14:28:51;;;;;;;19.50;9.00;;;;;;;;;;4989507;28;20401;-68
2021/06/25 14:31:17;;;;;;;17.55;9.48;;;;;;;;;;4991072;28;20109;-68
2021/06/25 14:33:43;;;;;;;20.00;9.73;;;;;;;;;;4989259;28;20113;-68
2021/06/25 14:36:09;;;;;;;20.63;10.23;;;;;;;;;;4987695;28;20065;-68
2021/06/25 14:38:36;;;;;;;14.32;8.18;;;;;;;;;;4988635;28;20489;-68
2021/06/25 14:41:04;;;;;;;12.48;5.78;;;;;;;;;;4990189;28;20069;-67
2021/06/25 14:43:32;;;;;;;12.20;4.63;;;;;;;;;;4987080;28;20027;-68